createdAt,value
2024-01-05T00:00:30.908Z,4.25
2024-01-05T00:03:02.013Z,5.18
2024-01-05T00:05:30.097Z,4.32
2024-01-05T00:07:57.973Z,4.57
2024-01-05T00:10:25.962Z,3.62
2024-01-05T00:12:53.906Z,3.55
2024-01-05T00:15:22.460Z,3.33
2024-01-05T00:17:50.535Z,3.30
2024-01-05T00:20:18.748Z,3.45
2024-01-05T00:22:46.745Z,2.42
2024-01-05T00:25:14.743Z,2.42
2024-01-05T00:27:42.678Z,2.67
2024-01-05T00:30:11.511Z,2.58
2024-01-05T00:32:39.741Z,2.65
2024-01-05T00:35:08.320Z,2.80
2024-01-05T00:37:36.388Z,2.42
2024-01-05T00:40:05.513Z,2.72
2024-01-05T00:42:33.565Z,2.53
2024-01-05T00:45:01.718Z,2.60
2024-01-05T00:47:29.739Z,2.90
2024-01-05T00:49:57.749Z,2.22
2024-01-05T00:52:25.698Z,2.37
2024-01-05T00:54:53.748Z,2.42
2024-01-05T00:57:21.685Z,2.78
2024-01-05T00:59:49.672Z,2.55
2024-01-05T01:02:17.765Z,2.55
2024-01-05T01:04:45.785Z,2.72
2024-01-05T01:07:13.781Z,2.87
2024-01-05T01:09:41.794Z,2.22
2024-01-05T01:12:09.766Z,2.30
2024-01-05T01:14:37.662Z,2.37
2024-01-05T01:17:05.671Z,2.83
2024-01-05T01:19:33.711Z,2.85
2024-01-05T01:22:01.828Z,2.83
2024-01-05T01:24:30.204Z,3.35
2024-01-05T01:26:58.195Z,3.25
2024-01-05T01:29:27.538Z,3.15
2024-01-05T01:31:55.529Z,3.50
2024-01-05T01:34:23.752Z,3.40
2024-01-05T01:36:53.596Z,4.93
2024-01-05T01:39:21.616Z,3.40
2024-01-05T01:41:49.643Z,2.85
2024-01-05T01:44:17.633Z,2.87
2024-01-05T01:46:45.636Z,2.95
2024-01-05T01:49:14.699Z,3.85
2024-01-05T01:51:43.384Z,3.20
2024-01-05T01:54:12.034Z,3.58
2024-01-05T01:56:41.269Z,3.50
2024-01-05T01:59:09.993Z,3.83
2024-01-05T02:01:38.138Z,3.08
2024-01-05T02:04:06.740Z,2.72
2024-01-05T02:06:35.634Z,3.25
2024-01-05T02:09:03.604Z,3.08
2024-01-05T02:11:31.572Z,3.10
2024-01-05T02:13:59.822Z,3.05
2024-01-05T02:16:27.822Z,3.22
2024-01-05T02:18:55.876Z,3.03
2024-01-05T02:21:31.876Z,3.53
2024-01-05T02:24:00.268Z,3.55
2024-01-05T02:26:28.686Z,3.45
2024-01-05T02:28:56.659Z,3.50
2024-01-05T02:31:24.702Z,4.07
2024-01-05T02:33:52.921Z,3.30
2024-01-05T02:36:20.981Z,3.35
2024-01-05T02:38:48.965Z,3.75
2024-01-05T02:41:16.897Z,3.80
2024-01-05T02:43:44.851Z,3.42
2024-01-05T02:46:12.888Z,3.83
2024-01-05T02:48:41.081Z,3.33
2024-01-05T02:51:09.316Z,3.10
2024-01-05T02:53:37.681Z,3.15
2024-01-05T02:56:05.855Z,4.32
2024-01-05T02:58:33.885Z,4.65
2024-01-05T03:01:01.877Z,4.18
2024-01-05T03:03:29.986Z,4.03
2024-01-05T03:05:58.077Z,4.05
2024-01-05T03:08:26.035Z,3.92
2024-01-05T03:10:53.998Z,3.53
2024-01-05T03:13:21.927Z,4.40
2024-01-05T03:15:49.908Z,3.97
2024-01-05T03:18:18.026Z,4.28
2024-01-05T03:20:46.032Z,4.15
2024-01-05T03:23:14.049Z,3.58
2024-01-05T03:25:42.029Z,3.85
2024-01-05T03:28:09.983Z,4.03
2024-01-05T03:30:38.041Z,3.20
2024-01-05T03:33:06.475Z,4.45
2024-01-05T03:35:34.506Z,4.25
2024-01-05T03:38:02.619Z,3.47
2024-01-05T03:40:30.553Z,3.75
2024-01-05T03:42:58.851Z,3.28
2024-01-05T03:45:26.932Z,3.25
2024-01-05T03:47:54.943Z,3.33
2024-01-05T03:50:22.918Z,4.05
2024-01-05T03:52:51.005Z,3.42
2024-01-05T03:55:19.204Z,3.85
2024-01-05T03:57:47.381Z,4.20
2024-01-05T04:00:15.650Z,3.83
2024-01-05T04:02:43.721Z,3.22
2024-01-05T04:05:11.765Z,3.12
2024-01-05T04:07:40.965Z,3.90
2024-01-05T04:10:09.408Z,3.70
2024-01-05T04:12:37.437Z,3.60
2024-01-05T04:15:06.718Z,3.90
2024-01-05T04:17:34.704Z,4.50
2024-01-05T04:20:02.744Z,4.82
2024-01-05T04:22:33.521Z,2.87
2024-01-05T04:25:01.731Z,2.95
2024-01-05T04:27:29.827Z,3.28
2024-01-05T04:29:57.867Z,3.67
2024-01-05T04:32:26.492Z,3.12
2024-01-05T04:34:54.811Z,3.37
2024-01-05T04:37:22.696Z,3.40
2024-01-05T04:39:51.774Z,3.35
2024-01-05T04:42:19.904Z,3.78
2024-01-05T04:44:48.021Z,3.00
2024-01-05T04:47:15.946Z,3.45
2024-01-05T04:49:44.097Z,3.83
2024-01-05T04:52:12.231Z,3.50
2024-01-05T04:54:40.218Z,3.20
2024-01-05T04:57:08.236Z,4.35
2024-01-05T04:59:36.556Z,4.62
2024-01-05T05:02:04.609Z,3.85
2024-01-05T05:04:32.525Z,3.97
2024-01-05T05:07:05.498Z,4.05
2024-01-05T05:09:33.618Z,5.25
2024-01-05T05:12:01.638Z,4.80
2024-01-05T05:14:29.583Z,4.32
2024-01-05T05:16:57.608Z,4.10
2024-01-05T05:19:25.829Z,3.97
2024-01-05T05:21:53.841Z,4.12
2024-01-05T05:24:21.865Z,3.30
2024-01-05T05:26:49.901Z,3.40
2024-01-05T05:29:17.889Z,3.35
2024-01-05T05:31:46.184Z,4.03
2024-01-05T05:34:14.383Z,4.10
2024-01-05T05:36:42.442Z,3.70
2024-01-05T05:39:12.222Z,4.15
2024-01-05T05:41:40.176Z,3.85
2024-01-05T05:44:08.162Z,3.58
2024-01-05T05:46:36.211Z,3.53
2024-01-05T05:49:04.423Z,3.37
2024-01-05T05:51:35.730Z,3.20
2024-01-05T05:54:04.826Z,2.62
2024-01-05T05:56:32.816Z,2.90
2024-01-05T05:59:00.835Z,2.17
2024-01-05T06:01:28.896Z,2.72
2024-01-05T06:03:57.491Z,2.83
2024-01-05T06:06:26.134Z,2.75
2024-01-05T06:08:54.186Z,2.75
2024-01-05T06:11:22.223Z,3.37
2024-01-05T06:13:50.447Z,2.97
2024-01-05T06:16:18.508Z,2.67
2024-01-05T06:18:46.683Z,3.15
2024-01-05T06:21:14.853Z,3.10
2024-01-05T06:23:43.015Z,3.00
2024-01-05T06:26:11.037Z,3.03
2024-01-05T06:28:41.101Z,2.53
2024-01-05T06:31:09.258Z,3.00
2024-01-05T06:33:37.413Z,3.47
2024-01-05T06:36:05.799Z,3.17
2024-01-05T06:38:33.696Z,3.50
2024-01-05T06:41:02.999Z,3.03
2024-01-05T06:43:30.979Z,2.87
2024-01-05T06:45:58.982Z,3.20
2024-01-05T06:48:27.075Z,3.17
2024-01-05T06:50:55.241Z,2.67
2024-01-05T06:53:23.230Z,2.78
2024-01-05T06:55:51.207Z,3.50
2024-01-05T06:58:19.458Z,3.70
2024-01-05T07:00:47.541Z,3.20
2024-01-05T07:03:15.576Z,4.03
2024-01-05T07:05:43.896Z,3.25
2024-01-05T07:08:12.344Z,3.20
2024-01-05T07:10:40.334Z,3.62
2024-01-05T07:13:11.563Z,3.20
2024-01-05T07:15:39.527Z,3.70
2024-01-05T07:18:08.746Z,4.32
2024-01-05T07:20:36.794Z,4.57
2024-01-05T07:23:04.810Z,5.10
2024-01-05T07:25:32.780Z,5.05
2024-01-05T07:28:00.776Z,5.12
2024-01-05T07:30:28.863Z,5.35
2024-01-05T07:32:57.329Z,5.68
2024-01-05T07:35:25.428Z,5.18
2024-01-05T07:37:53.493Z,4.75
2024-01-05T07:40:21.402Z,4.57
2024-01-05T07:42:52.050Z,5.78
2024-01-05T07:45:20.233Z,4.53
2024-01-05T07:47:50.426Z,4.10
2024-01-05T07:50:18.360Z,5.00
2024-01-05T07:52:46.371Z,4.60
2024-01-05T07:55:14.564Z,4.57
2024-01-05T07:57:44.792Z,4.68
2024-01-05T08:00:14.824Z,4.10
2024-01-05T08:02:42.837Z,4.07
2024-01-05T08:05:13.726Z,3.90
2024-01-05T08:07:41.888Z,3.28
2024-01-05T08:10:10.013Z,3.00
2024-01-05T08:12:38.149Z,4.10
2024-01-05T08:15:06.791Z,3.90
2024-01-05T08:17:34.894Z,3.65
2024-01-05T08:20:02.899Z,3.60
2024-01-05T08:22:30.940Z,3.28
2024-01-05T08:24:58.888Z,4.72
2024-01-05T08:27:26.914Z,4.15
2024-01-05T08:29:54.950Z,4.00
2024-01-05T08:32:22.991Z,3.62
2024-01-05T08:34:51.268Z,3.72
2024-01-05T08:37:19.305Z,3.80
2024-01-05T08:39:47.328Z,4.35
2024-01-05T08:42:16.265Z,4.03
2024-01-05T08:44:44.322Z,4.97
2024-01-05T08:47:12.208Z,3.53
2024-01-05T08:49:40.200Z,3.40
2024-01-05T08:52:08.438Z,4.10
2024-01-05T08:54:36.797Z,6.22
2024-01-05T08:57:07.674Z,5.87
2024-01-05T08:59:39.161Z,4.28
2024-01-05T09:02:08.415Z,5.12
2024-01-05T09:04:36.321Z,4.85
2024-01-05T09:07:04.477Z,4.20
2024-01-05T09:09:32.805Z,3.75
2024-01-05T09:12:01.671Z,3.42
2024-01-05T09:14:29.864Z,3.15
2024-01-05T09:16:57.889Z,2.85
2024-01-05T09:19:26.552Z,4.55
2024-01-05T09:21:54.846Z,6.72
2024-01-05T09:24:22.901Z,6.35
2024-01-05T09:26:50.921Z,6.95
2024-01-05T09:29:18.980Z,5.53
2024-01-05T09:31:50.494Z,4.37
2024-01-05T09:34:19.635Z,4.65
2024-01-05T09:36:47.859Z,4.50
2024-01-05T09:39:16.067Z,4.57
2024-01-05T09:41:44.813Z,5.65
2024-01-05T09:44:14.167Z,6.32
2024-01-05T09:46:43.264Z,6.32
2024-01-05T09:49:12.459Z,5.65
2024-01-05T09:51:40.536Z,5.50
2024-01-05T09:54:08.960Z,5.90
2024-01-05T09:56:37.493Z,4.57
2024-01-05T09:59:06.749Z,6.07
2024-01-05T10:01:36.953Z,6.30
2024-01-05T10:04:05.432Z,5.53
2024-01-05T10:06:33.713Z,5.55
2024-01-05T10:09:01.915Z,5.43
2024-01-05T10:11:45.083Z,5.22
2024-01-05T10:14:16.297Z,5.97
2024-01-05T10:16:44.179Z,6.05
2024-01-05T10:19:14.291Z,6.30
2024-01-05T10:21:43.797Z,7.60
2024-01-05T10:24:25.195Z,6.85
2024-01-05T10:27:07.366Z,6.57
2024-01-05T10:29:40.363Z,6.32
2024-01-05T10:32:15.287Z,6.28
2024-01-05T10:34:45.153Z,6.15
2024-01-05T10:37:13.963Z,5.97
2024-01-05T10:39:59.222Z,5.70
2024-01-05T10:42:31.257Z,4.57
2024-01-05T10:45:00.982Z,4.87
2024-01-05T10:47:33.552Z,5.28
2024-01-05T10:50:01.965Z,4.40
2024-01-05T10:52:34.521Z,5.20
2024-01-05T10:55:06.328Z,4.55
2024-01-05T10:57:38.656Z,5.15
2024-01-05T11:00:11.866Z,5.32
2024-01-05T11:02:43.264Z,4.85
2024-01-05T11:05:16.183Z,5.80
2024-01-05T11:07:45.167Z,4.95
2024-01-05T11:10:21.838Z,5.10
2024-01-05T11:13:05.021Z,5.32
2024-01-05T11:15:50.956Z,5.00
2024-01-05T11:18:57.138Z,5.30
2024-01-05T11:21:38.593Z,6.03
2024-01-05T11:24:07.186Z,5.62
2024-01-05T11:26:38.049Z,5.45
2024-01-05T11:29:06.155Z,5.53
2024-01-05T11:31:49.544Z,5.80
2024-01-05T11:34:37.867Z,6.22
2024-01-05T11:37:09.683Z,5.70
2024-01-05T11:39:55.973Z,5.47
2024-01-05T11:42:27.042Z,4.95
2024-01-05T11:44:55.465Z,6.35
2024-01-05T11:47:46.205Z,5.70
2024-01-05T11:50:26.632Z,6.35
2024-01-05T11:53:13.608Z,6.75
2024-01-05T11:55:48.949Z,7.12
2024-01-05T11:58:21.034Z,8.68
2024-01-05T12:00:53.156Z,7.40
2024-01-05T12:03:23.129Z,6.60
2024-01-05T12:05:55.187Z,6.50
2024-01-05T12:08:26.424Z,6.40
2024-01-05T12:11:06.322Z,6.25
2024-01-05T12:13:35.867Z,6.57
2024-01-05T12:16:09.112Z,7.12
2024-01-05T12:18:50.989Z,6.85
2024-01-05T12:21:22.060Z,6.62
2024-01-05T12:23:57.463Z,7.25
2024-01-05T12:26:27.139Z,6.22
2024-01-05T12:28:56.117Z,5.82
2024-01-05T12:31:24.705Z,6.57
2024-01-05T12:33:54.507Z,6.18
2024-01-05T12:36:30.591Z,6.43
2024-01-05T12:39:14.077Z,6.53
2024-01-05T12:41:45.064Z,6.90
2024-01-05T12:44:13.165Z,5.30
2024-01-05T12:46:48.769Z,5.65
2024-01-05T12:49:25.108Z,5.75
2024-01-05T12:51:55.184Z,5.93
2024-01-05T12:54:24.047Z,5.82
2024-01-05T12:56:56.710Z,6.57
2024-01-05T12:59:26.106Z,6.15
2024-01-05T13:02:05.024Z,6.18
2024-01-05T13:04:40.415Z,7.00
2024-01-05T13:07:13.235Z,6.12
2024-01-05T13:09:41.451Z,6.05
2024-01-05T13:12:09.836Z,6.72
2024-01-05T13:14:37.840Z,5.90
2024-01-05T13:17:08.606Z,6.53
2024-01-05T13:19:38.562Z,7.15
2024-01-05T13:22:11.878Z,7.80
2024-01-05T13:24:43.314Z,6.82
2024-01-05T13:27:14.363Z,6.43
2024-01-05T13:29:42.509Z,5.68
2024-01-05T13:32:10.607Z,6.78
2024-01-05T13:34:38.708Z,7.22
2024-01-05T13:37:06.820Z,7.47
2024-01-05T13:39:38.294Z,7.22
2024-01-05T13:42:06.544Z,7.50
2024-01-05T13:44:34.489Z,7.15
2024-01-05T13:47:02.492Z,7.50
2024-01-05T13:49:35.201Z,7.45
2024-01-05T13:52:03.346Z,6.45
2024-01-05T13:54:35.575Z,6.72
2024-01-05T13:57:04.620Z,6.30
2024-01-05T13:59:32.674Z,6.18
2024-01-05T14:02:00.722Z,5.90
2024-01-05T14:04:28.681Z,6.37
2024-01-05T14:06:56.883Z,6.53
2024-01-05T14:09:25.175Z,5.87
2024-01-05T14:11:53.196Z,5.97
2024-01-05T14:14:21.211Z,5.97
2024-01-05T14:16:49.272Z,5.28
2024-01-05T14:19:17.307Z,6.00
2024-01-05T14:21:46.451Z,6.37
2024-01-05T14:24:14.470Z,6.12
2024-01-05T14:26:42.721Z,6.53
2024-01-05T14:29:10.585Z,7.45
2024-01-05T14:31:38.573Z,6.30
2024-01-05T14:34:07.099Z,4.93
2024-01-05T14:36:35.115Z,5.47
2024-01-05T14:39:03.314Z,5.28
2024-01-05T14:41:31.225Z,4.70
2024-01-05T14:43:59.381Z,4.43
2024-01-05T14:46:27.542Z,4.62
2024-01-05T14:48:56.518Z,4.10
2024-01-05T14:51:25.602Z,4.00
2024-01-05T14:53:57.019Z,4.00
2024-01-05T14:56:25.114Z,4.03
2024-01-05T14:58:53.245Z,3.45
2024-01-05T15:01:21.737Z,4.03
2024-01-05T15:03:50.216Z,4.30
2024-01-05T15:06:18.326Z,3.58
2024-01-05T15:08:47.297Z,3.80
2024-01-05T15:11:22.253Z,4.20
2024-01-05T15:13:51.061Z,3.70
2024-01-05T15:16:19.138Z,3.92
2024-01-05T15:18:47.476Z,3.62
2024-01-05T15:21:24.803Z,3.85
2024-01-05T15:23:53.150Z,3.22
2024-01-05T15:26:21.145Z,3.62
2024-01-05T15:28:49.095Z,3.47
2024-01-05T15:31:21.816Z,4.15
2024-01-05T15:33:53.370Z,4.25
2024-01-05T15:36:26.157Z,4.10
2024-01-05T15:38:57.022Z,3.97
2024-01-05T15:41:26.234Z,4.12
2024-01-05T15:43:57.844Z,4.37
2024-01-05T15:46:28.301Z,3.70
2024-01-05T15:48:57.540Z,3.47
2024-01-05T15:51:27.806Z,3.80
2024-01-05T15:53:58.474Z,4.10
2024-01-05T15:56:29.530Z,3.78
2024-01-05T15:58:57.527Z,3.92
2024-01-05T16:01:25.484Z,3.75
2024-01-05T16:03:53.596Z,3.75
2024-01-05T16:06:22.384Z,3.45
2024-01-05T16:08:50.852Z,3.78
2024-01-05T16:11:18.950Z,3.45
2024-01-05T16:13:49.429Z,3.75
2024-01-05T16:16:21.591Z,4.05
2024-01-05T16:18:53.656Z,3.58
2024-01-05T16:21:32.590Z,3.85
2024-01-05T16:24:04.125Z,4.75
2024-01-05T16:26:32.263Z,4.37
2024-01-05T16:29:00.352Z,4.65
2024-01-05T16:31:28.700Z,5.18
2024-01-05T16:33:56.951Z,5.37
2024-01-05T16:36:28.097Z,5.03
2024-01-05T16:38:56.371Z,4.90
2024-01-05T16:41:26.282Z,4.47
2024-01-05T16:43:54.696Z,4.53
2024-01-05T16:46:23.633Z,5.05
2024-01-05T16:48:55.446Z,4.35
2024-01-05T16:51:24.303Z,4.80
2024-01-05T16:53:53.284Z,5.35
2024-01-05T16:56:27.099Z,4.53
2024-01-05T16:58:55.864Z,5.45
2024-01-05T17:01:27.433Z,5.00
2024-01-05T17:04:00.292Z,4.93
2024-01-05T17:06:28.523Z,5.32
2024-01-05T17:09:00.090Z,5.10
2024-01-05T17:11:36.363Z,4.85
2024-01-05T17:14:04.592Z,4.95
2024-01-05T17:16:33.153Z,5.00
2024-01-05T17:19:02.798Z,4.65
2024-01-05T17:21:30.880Z,6.15
2024-01-05T17:23:58.930Z,4.82
2024-01-05T17:26:28.352Z,4.65
2024-01-05T17:28:57.321Z,4.75
2024-01-05T17:31:25.456Z,5.47
2024-01-05T17:33:53.789Z,5.20
2024-01-05T17:36:29.105Z,5.80
2024-01-05T17:38:58.749Z,5.82
2024-01-05T17:41:27.104Z,5.12
2024-01-05T17:43:55.130Z,5.82
2024-01-05T17:46:23.162Z,5.07
2024-01-05T17:48:53.984Z,4.43
2024-01-05T17:51:22.193Z,4.90
2024-01-05T17:53:50.953Z,4.75
2024-01-05T17:56:24.811Z,3.90
2024-01-05T17:58:52.851Z,4.53
2024-01-05T18:01:20.994Z,4.55
2024-01-05T18:03:49.208Z,3.70
2024-01-05T18:06:17.364Z,4.00
2024-01-05T18:08:45.437Z,3.72
2024-01-05T18:11:23.483Z,4.55
2024-01-05T18:13:55.560Z,4.07
2024-01-05T18:16:27.705Z,4.07
2024-01-05T18:18:56.895Z,3.67
2024-01-05T18:21:30.123Z,4.20
2024-01-05T18:24:01.737Z,4.22
2024-01-05T18:26:29.897Z,4.95
2024-01-05T18:29:01.413Z,4.28
2024-01-05T18:31:33.488Z,5.28
2024-01-05T18:34:02.425Z,5.93
2024-01-05T18:36:30.924Z,7.32
2024-01-05T18:38:59.524Z,5.97
2024-01-05T18:41:33.277Z,5.95
2024-01-05T18:44:06.678Z,6.50
2024-01-05T18:46:34.639Z,7.55
2024-01-05T18:49:03.280Z,6.10
2024-01-05T18:51:31.277Z,6.62
2024-01-05T18:53:59.274Z,6.30
2024-01-05T18:56:30.216Z,6.18
2024-01-05T18:58:58.353Z,6.07
2024-01-05T19:01:26.344Z,7.12
2024-01-05T19:03:54.492Z,7.57
2024-01-05T19:06:23.199Z,6.10
2024-01-05T19:08:51.259Z,7.00
2024-01-05T19:11:22.036Z,7.28
2024-01-05T19:13:49.963Z,8.18
2024-01-05T19:16:20.910Z,7.60
2024-01-05T19:18:49.427Z,8.30
2024-01-05T19:21:17.792Z,8.15
2024-01-05T19:23:45.785Z,7.35
2024-01-05T19:26:23.814Z,6.93
2024-01-05T19:28:51.769Z,7.22
2024-01-05T19:31:21.410Z,10.18
2024-01-05T19:33:49.543Z,7.62
2024-01-05T19:36:18.655Z,7.68
2024-01-05T19:38:49.568Z,6.97
2024-01-05T19:41:18.871Z,6.97
2024-01-05T19:43:47.156Z,8.00
2024-01-05T19:46:16.238Z,6.72
2024-01-05T19:48:44.830Z,6.95
2024-01-05T19:51:15.113Z,6.20
2024-01-05T19:53:43.218Z,6.55
2024-01-05T19:56:11.182Z,5.68
2024-01-05T19:58:39.072Z,5.93
2024-01-05T20:01:07.186Z,7.18
2024-01-05T20:03:38.135Z,8.38
2024-01-05T20:06:06.537Z,5.60
2024-01-05T20:08:34.614Z,6.55
2024-01-05T20:11:02.669Z,6.00
2024-01-05T20:13:31.328Z,6.00
2024-01-05T20:16:02.596Z,6.07
2024-01-05T20:18:30.795Z,5.68
2024-01-05T20:20:58.798Z,6.45
2024-01-05T20:23:27.080Z,7.03
2024-01-05T20:25:56.439Z,7.22
2024-01-05T20:28:24.345Z,6.70
2024-01-05T20:30:52.600Z,7.25
2024-01-05T20:33:23.038Z,8.02
2024-01-05T20:35:51.042Z,7.55
2024-01-05T20:38:21.980Z,7.60
2024-01-05T20:40:50.020Z,6.72
2024-01-05T20:43:18.006Z,7.53
2024-01-05T20:45:49.026Z,8.25
2024-01-05T20:48:17.157Z,7.70
2024-01-05T20:50:45.713Z,8.02
2024-01-05T20:53:13.658Z,7.28
2024-01-05T20:55:42.648Z,6.62
2024-01-05T20:58:10.706Z,6.68
2024-01-05T21:00:38.837Z,7.25
2024-01-05T21:03:07.414Z,7.40
2024-01-05T21:05:36.919Z,7.00
2024-01-05T21:08:11.147Z,7.22
2024-01-05T21:10:42.262Z,6.72
2024-01-05T21:13:12.962Z,6.95
2024-01-05T21:15:40.891Z,7.47
2024-01-05T21:18:09.532Z,6.93
2024-01-05T21:20:37.616Z,6.53
2024-01-05T21:23:06.033Z,7.55
2024-01-05T21:25:36.695Z,6.18
2024-01-05T21:28:06.171Z,6.07
2024-01-05T21:30:37.052Z,6.75
2024-01-05T21:33:06.133Z,7.45
2024-01-05T21:35:34.315Z,7.03
2024-01-05T21:38:02.748Z,7.12
2024-01-05T21:40:32.177Z,7.03
2024-01-05T21:43:00.743Z,9.95
2024-01-05T21:45:28.716Z,8.15
2024-01-05T21:47:56.765Z,7.85
2024-01-05T21:50:30.627Z,7.35
2024-01-05T21:53:01.092Z,7.78
2024-01-05T21:55:29.070Z,8.07
2024-01-05T21:58:00.771Z,7.15
2024-01-05T22:00:30.020Z,7.80
2024-01-05T22:02:58.025Z,8.15
2024-01-05T22:05:26.023Z,7.80
2024-01-05T22:07:59.469Z,9.52
2024-01-05T22:10:29.346Z,7.00
2024-01-05T22:12:57.333Z,8.35
2024-01-05T22:15:26.946Z,10.75
2024-01-05T22:17:55.705Z,8.68
2024-01-05T22:20:23.735Z,8.30
2024-01-05T22:22:52.050Z,9.43
2024-01-05T22:25:22.414Z,7.57
2024-01-05T22:27:50.394Z,8.38
2024-01-05T22:30:18.594Z,8.20
2024-01-05T22:32:46.829Z,7.65
2024-01-05T22:35:14.862Z,8.50
2024-01-05T22:37:43.442Z,8.32
2024-01-05T22:40:12.889Z,7.60
2024-01-05T22:42:40.928Z,8.23
2024-01-05T22:45:09.367Z,7.65
2024-01-05T22:47:37.529Z,9.25
2024-01-05T22:50:08.598Z,8.85
2024-01-05T22:52:36.621Z,8.40
2024-01-05T22:55:07.124Z,8.25
2024-01-05T22:57:35.143Z,7.32
2024-01-05T23:00:05.674Z,7.87
2024-01-05T23:02:33.685Z,7.90
2024-01-05T23:05:02.747Z,7.25
2024-01-05T23:07:33.375Z,7.50
2024-01-05T23:10:01.585Z,7.32
2024-01-05T23:12:29.632Z,7.25
2024-01-05T23:14:57.850Z,6.43
2024-01-05T23:17:26.010Z,6.25
2024-01-05T23:19:54.581Z,6.28
2024-01-05T23:22:27.059Z,6.20
2024-01-05T23:24:55.252Z,6.07
2024-01-05T23:27:23.232Z,5.97
2024-01-05T23:29:53.943Z,5.35
2024-01-05T23:32:21.942Z,5.47
2024-01-05T23:34:50.049Z,5.22
2024-01-05T23:37:18.389Z,5.50
2024-01-05T23:39:46.334Z,5.05
2024-01-05T23:42:14.444Z,5.53
2024-01-05T23:44:42.436Z,6.70
2024-01-05T23:47:13.144Z,6.60
2024-01-05T23:49:41.190Z,5.93
2024-01-05T23:52:09.358Z,5.50
2024-01-05T23:54:37.461Z,5.68
2024-01-05T23:57:05.738Z,6.47
2024-01-05T23:59:36.944Z,6.10
